Time;durP1;ratioP1;P1;durP2;ratioP2;P2;SDS_P1;SDS_P2;PMS_P1;PMS_P2;Temp;Humidity;BMP_temperature;BMP_pressure;BME280_temperature;BME280_humidity;BME280_pressure;Samples;Min_cycle;Max_cycle;Signal;HPM_P1;HPM_P2
2021/11/23 00:02:07;;;;;;;;;;;230.70;2252.80;;;;;;4940516;29;20118;-80
2021/11/23 00:04:44;;;;;;;54.28;30.58;;;230.50;2252.80;;;;;;4940683;28;19922;-79
2021/11/23 00:07:11;;;;;;;54.75;30.73;;;230.60;2252.80;;;;;;4948237;29;20037;-83
2021/11/23 00:09:36;;;;;;;63.15;32.95;;;231.30;2252.80;;;;;;4948604;28;20031;-76
2021/11/23 00:12:02;;;;;;;;;;;230.70;2252.80;;;;;;4966410;28;20125;-83
2021/11/23 00:14:28;;;;;;;59.97;33.25;;;230.60;2252.80;;;;;;4942896;29;20370;-83
2021/11/23 00:16:54;;;;;;;;;;;230.70;2252.80;;;;;;4940694;29;20391;-81
2021/11/23 00:19:20;;;;;;;59.42;31.38;;;230.80;2252.80;;;;;;4943293;28;19914;-82
2021/11/23 00:21:46;;;;;;;57.85;28.65;;;230.60;2252.80;;;;;;4949716;28;20033;-81
2021/11/23 00:24:12;;;;;;;56.38;29.05;;;205.50;2252.80;;;;;;4958193;28;20035;-81
2021/11/23 00:26:38;;;;;;;;;;;230.80;2252.80;;;;;;4965551;28;20375;-77
2021/11/23 00:29:06;;;;;;;60.60;29.60;;;230.60;2252.80;;;;;;4966927;28;20278;-80
2021/11/23 00:31:32;;;;;;;60.13;31.08;;;230.60;2252.80;;;;;;4939376;28;20030;-78
2021/11/23 00:33:58;;;;;;;;;;;230.50;2252.80;;;;;;4947267;28;20023;-78
2021/11/23 00:36:23;;;;;;;50.08;26.20;;;230.50;2252.80;;;;;;4965985;28;19953;-79
2021/11/23 00:38:52;;;;;;;;;;;230.40;2252.80;;;;;;4939294;29;20026;-80
2021/11/23 00:41:19;;;;;;;53.65;27.13;;;230.50;2252.80;;;;;;4946679;28;19914;-79
2021/11/23 00:43:45;;;;;;;;;;;230.40;2252.80;;;;;;4966218;28;20022;-80
2021/11/23 00:46:11;;;;;;;43.72;22.20;;;230.40;2252.80;;;;;;4957506;28;19929;-77
2021/11/23 00:48:38;;;;;;;54.72;30.75;;;230.60;2252.80;;;;;;4964914;28;20041;-76
2021/11/23 00:51:05;;;;;;;58.45;30.17;;;230.40;2252.80;;;;;;4964025;28;20023;-80
2021/11/23 00:53:33;;;;;;;60.05;29.60;;;230.40;2252.80;;;;;;4957435;28;20031;-79
2021/11/23 00:56:00;;;;;;;61.35;31.73;;;230.40;2252.80;;;;;;4955767;29;20031;-79
2021/11/23 00:58:25;;;;;;;60.08;30.00;;;230.40;2252.80;;;;;;4955997;29;20031;-80
2021/11/23 01:00:51;;;;;;;;;;;230.40;2252.80;;;;;;4956219;29;20030;-76
2021/11/23 01:03:18;;;;;;;56.72;26.35;;;230.40;2252.80;;;;;;4955678;29;20421;-80
2021/11/23 01:05:46;;;;;;;53.10;27.90;;;230.40;2252.80;;;;;;4938415;29;20097;-80
2021/11/23 01:08:14;;;;;;;52.47;28.23;;;230.40;2252.80;;;;;;4955929;29;20526;-77
2021/11/23 01:10:41;;;;;;;55.38;30.13;;;230.40;2252.80;;;;;;4955593;28;20051;-76
2021/11/23 01:13:07;;;;;;;55.95;30.95;;;230.40;2252.80;;;;;;4955784;29;20023;-76
2021/11/23 01:15:33;;;;;;;61.25;33.22;;;230.40;2252.80;;;;;;4955650;29;20154;-76
2021/11/23 01:17:59;;;;;;;58.83;34.42;;;230.40;2252.80;;;;;;4955487;29;20019;-77
2021/11/23 01:20:25;;;;;;;;;;;230.40;2252.80;;;;;;4955456;29;20037;-77
2021/11/23 01:22:52;;;;;;;56.60;31.38;;;230.40;2252.80;;;;;;4955433;29;19989;-76
2021/11/23 01:25:18;;;;;;;68.55;34.03;;;230.40;2252.80;;;;;;4938104;29;20152;-78
2021/11/23 01:27:44;;;;;;;;;;;230.60;2252.80;;;;;;4938530;29;20027;-76
2021/11/23 01:30:12;;;;;;;60.72;32.80;;;230.60;2252.80;;;;;;4955203;29;19969;-78
2021/11/23 01:32:38;;;;;;;56.22;30.88;;;230.50;2252.80;;;;;;4938142;29;20169;-77
2021/11/23 01:35:06;;;;;;;58.92;33.10;;;230.50;2252.80;;;;;;4937960;29;20024;-76
2021/11/23 01:37:31;;;;;;;54.78;29.70;;;205.70;2252.80;;;;;;4937497;29;20032;-78
2021/11/23 01:39:57;;;;;;;;;;;205.70;2252.80;;;;;;4938484;29;20086;-77
2021/11/23 01:42:24;;;;;;;54.38;29.45;;;205.70;2252.80;;;;;;4938019;29;20008;-76
2021/11/23 01:44:50;;;;;;;56.03;28.25;;;205.70;2252.80;;;;;;4955083;29;20035;-76
2021/11/23 01:47:15;;;;;;;;;;;205.70;2252.80;;;;;;4955682;29;20027;-76
2021/11/23 01:49:41;;;;;;;60.17;27.55;;;205.70;2252.80;;;;;;4954997;29;19964;-76
2021/11/23 01:52:07;;;;;;;;;;;205.70;2252.80;;;;;;4939634;29;20028;-76
2021/11/23 01:54:34;;;;;;;48.40;25.05;;;205.70;2252.80;;;;;;4959122;29;19910;-76
2021/11/23 01:57:00;;;;;;;56.22;28.10;;;205.70;2252.80;;;;;;4958998;29;20052;-77
2021/11/23 01:59:26;;;;;;;53.35;27.00;;;230.40;2252.80;;;;;;4959046;29;20038;-77
2021/11/23 02:01:52;;;;;;;;;;;230.50;2252.80;;;;;;4959404;29;20472;-76
2021/11/23 02:04:18;;;;;;;46.67;25.25;;;230.40;2252.80;;;;;;4941822;29;19921;-77
2021/11/23 02:06:44;;;;;;;;;;;230.50;2252.80;;;;;;4944426;29;20032;-79
2021/11/23 02:09:10;;;;;;;49.78;24.63;;;230.40;2252.80;;;;;;4961444;29;19910;-78
2021/11/23 02:11:35;;;;;;;;;;;230.40;2252.80;;;;;;4959028;28;20055;-76
2021/11/23 02:14:01;;;;;;;50.38;24.80;;;230.40;2252.80;;;;;;4941595;29;19917;-78
2021/11/23 02:16:27;;;;;;;49.20;25.17;;;205.70;2252.80;;;;;;4958750;29;20094;-78
2021/11/23 02:18:53;;;;;;;;;;;205.70;2252.80;;;;;;4959240;29;20443;-77
2021/11/23 02:21:19;;;;;;;50.17;25.95;;;205.70;2252.80;;;;;;4958183;29;19910;-77
2021/11/23 02:23:45;;;;;;;;;;;230.40;2252.80;;;;;;4941381;29;20144;-77
2021/11/23 02:26:11;;;;;;;56.28;26.77;;;230.40;2252.80;;;;;;4938137;29;19911;-77
2021/11/23 02:28:37;;;;;;;;;;;205.70;2252.80;;;;;;4938659;29;20365;-77
2021/11/23 02:31:05;;;;;;;48.25;24.38;;;230.40;2252.80;;;;;;4938044;29;19918;-81
2021/11/23 02:33:31;;;;;;;55.90;26.75;;;205.70;2252.80;;;;;;4937945;29;20392;-80
2021/11/23 02:35:58;;;;;;;;;;;230.40;2252.80;;;;;;4938395;29;20023;-77
2021/11/23 02:38:25;;;;;;;51.25;25.92;;;230.40;2252.80;;;;;;4937929;29;19922;-78
2021/11/23 02:40:51;;;;;;;55.83;27.67;;;205.70;2252.80;;;;;;4937970;29;20028;-81
2021/11/23 02:43:17;;;;;;;49.03;25.25;;;230.40;2252.80;;;;;;4939444;29;20028;-76
2021/11/23 02:45:43;;;;;;;;;;;230.40;2252.80;;;;;;4939364;29;20404;-77
2021/11/23 02:48:11;;;;;;;54.90;25.25;;;230.40;2252.80;;;;;;4937846;29;20367;-77
2021/11/23 02:50:39;;;;;;;47.25;24.10;;;230.50;2252.80;;;;;;4939002;29;20055;-78
2021/11/23 02:53:05;;;;;;;55.63;27.30;;;230.40;2252.80;;;;;;4938832;29;20047;-79
2021/11/23 02:55:33;;;;;;;49.03;27.15;;;230.40;2252.80;;;;;;4938833;29;20062;-76
2021/11/23 02:58:01;;;;;;;49.65;27.08;;;230.50;2252.80;;;;;;4937548;29;20030;-77
2021/11/23 03:00:29;;;;;;;55.63;26.10;;;230.50;2252.80;;;;;;4938918;29;20027;-77
2021/11/23 03:02:55;;;;;;;50.63;25.80;;;230.50;2252.80;;;;;;4938532;29;20071;-79
2021/11/23 03:05:22;;;;;;;;;;;230.50;2252.80;;;;;;4939125;29;20068;-80
2021/11/23 03:07:48;;;;;;;;;;;230.50;2252.80;;;;;;4939006;29;19906;-76
2021/11/23 03:10:14;;;;;;;55.85;26.08;;;230.40;2252.80;;;;;;4941379;29;19934;-79
2021/11/23 03:12:40;;;;;;;53.97;28.88;;;205.70;2252.80;;;;;;4958464;28;20480;-78
2021/11/23 03:15:07;;;;;;;;;;;205.70;2252.80;;;;;;4958110;28;20019;-78
2021/11/23 03:17:33;;;;;;;57.60;27.50;;;205.70;2252.80;;;;;;4957057;28;20388;-79
2021/11/23 03:19:58;;;;;;;;;;;205.60;2252.80;;;;;;4948997;28;20031;-77
2021/11/23 03:22:24;;;;;;;51.95;27.55;;;205.50;2252.80;;;;;;4948732;28;20409;-77
2021/11/23 03:24:50;;;;;;;;;;;205.50;2252.80;;;;;;4950955;28;20047;-79
2021/11/23 03:27:16;;;;;;;51.75;27.33;;;205.40;2252.80;;;;;;4948516;28;19913;-77
2021/11/23 03:29:43;;;;;;;52.45;27.25;;;205.40;2252.80;;;;;;4946069;28;20105;-78
2021/11/23 03:32:09;;;;;;;;;;;205.40;2252.80;;;;;;4959635;28;20047;-80
2021/11/23 03:34:39;;;;;;;41.92;20.05;;;205.40;2252.80;;;;;;4940425;29;19906;-78
2021/11/23 03:37:08;;;;;;;51.58;26.35;;;205.30;2252.80;;;;;;4940104;29;20567;-77
2021/11/23 03:39:36;;;;;;;57.30;25.48;;;205.50;2252.80;;;;;;4939992;29;20035;-77
2021/11/23 03:42:03;;;;;;;53.05;26.25;;;205.60;2252.80;;;;;;4943930;28;20018;-77
2021/11/23 03:44:29;;;;;;;54.50;28.25;;;205.50;2252.80;;;;;;4960589;28;20126;-80
2021/11/23 03:46:54;;;;;;;;;;;205.60;2252.80;;;;;;4954837;29;20114;-80
2021/11/23 03:49:21;;;;;;;58.53;24.98;;;205.70;2252.80;;;;;;4955900;28;19907;-80
2021/11/23 03:51:46;;;;;;;51.70;25.23;;;205.70;2252.80;;;;;;4956848;29;20027;-79
2021/11/23 03:54:12;;;;;;;;;;;205.70;2252.80;;;;;;4957062;28;20383;-76
2021/11/23 03:56:39;;;;;;;49.72;23.45;;;205.60;2252.80;;;;;;4956745;29;20010;-79
2021/11/23 03:59:05;;;;;;;48.55;23.50;;;205.60;2252.80;;;;;;4939338;29;20043;-80
2021/11/23 04:01:31;;;;;;;;;;;205.70;2252.80;;;;;;4940415;29;20143;-80
2021/11/23 04:03:57;;;;;;;47.35;24.42;;;230.40;2252.80;;;;;;4956739;29;20279;-77
2021/11/23 04:06:22;;;;;;;;;;;205.70;2252.80;;;;;;4939776;29;20098;-80
2021/11/23 04:08:48;;;;;;;40.95;21.00;;;205.70;2252.80;;;;;;4956493;29;19906;-76
2021/11/23 04:11:13;;;;;;;;;;;205.60;2252.80;;;;;;4956988;28;20448;-76
2021/11/23 04:13:43;;;;;;;45.88;22.00;;;205.50;2252.80;;;;;;4939669;28;20309;-78
2021/11/23 04:16:09;;;;;;;44.88;23.33;;;205.50;2252.80;;;;;;4956085;29;20020;-80
2021/11/23 04:18:35;;;;;;;45.65;22.70;;;205.40;2252.80;;;;;;4955457;29;20031;-80
2021/11/23 04:21:00;;;;;;;;;;;205.70;2252.80;;;;;;4954970;28;20039;-79
2021/11/23 04:23:26;;;;;;;43.58;21.42;;;205.70;2252.80;;;;;;4956314;28;20599;-76
2021/11/23 04:25:51;;;;;;;;;;;205.60;2252.80;;;;;;4956567;29;20035;-76
2021/11/23 04:28:17;;;;;;;45.65;23.85;;;205.60;2252.80;;;;;;4956367;29;19907;-77
2021/11/23 04:30:43;;;;;;;;;;;205.60;2252.80;;;;;;4956928;29;20027;-76
2021/11/23 04:33:13;;;;;;;46.65;22.92;;;205.50;2252.80;;;;;;4956375;29;19906;-77
2021/11/23 04:35:39;;;;;;;48.53;21.98;;;205.40;2252.80;;;;;;4956317;29;20016;-77
2021/11/23 04:38:05;;;;;;;46.13;22.88;;;205.30;2252.80;;;;;;4955927;28;20094;-79
2021/11/23 04:40:31;;;;;;;;;;;205.30;2252.80;;;;;;4956527;29;20023;-77
2021/11/23 04:42:56;;;;;;;45.28;22.15;;;205.50;2252.80;;;;;;4956175;29;19952;-76
2021/11/23 04:45:22;;;;;;;;;;;205.50;2252.80;;;;;;4939511;29;20094;-81
2021/11/23 04:47:48;;;;;;;46.28;22.63;;;205.50;2252.80;;;;;;4938936;29;19906;-77
2021/11/23 04:50:13;;;;;;;;;;;205.40;2252.80;;;;;;4952804;28;20053;-77
2021/11/23 04:52:40;;;;;;;49.40;22.33;;;205.40;2252.80;;;;;;4974760;28;19929;-77
2021/11/23 04:55:06;;;;;;;41.15;20.15;;;205.30;2252.80;;;;;;4974836;28;20027;-76
2021/11/23 04:57:32;;;;;;;41.85;21.67;;;205.30;2252.80;;;;;;4929973;29;20028;-79
2021/11/23 04:59:58;;;;;;;;;;;205.20;2252.80;;;;;;4939062;29;20063;-80
2021/11/23 05:02:23;;;;;;;41.97;20.77;;;205.30;2252.80;;;;;;4955326;28;19911;-78
2021/11/23 05:04:49;;;;;;;;;;;205.20;2252.80;;;;;;4956087;29;20399;-77
2021/11/23 05:07:15;;;;;;;37.15;16.52;;;205.30;2252.80;;;;;;4938378;29;19913;-78
2021/11/23 05:09:40;;;;;;;;;;;205.10;2252.80;;;;;;4938869;29;20031;-77
2021/11/23 05:12:06;;;;;;;32.35;15.57;;;205.20;2252.80;;;;;;4938450;29;20450;-80
2021/11/23 05:14:32;;;;;;;;;;;205.10;2252.80;;;;;;4938989;29;20035;-80
2021/11/23 05:16:58;;;;;;;33.90;15.23;;;204.90;2252.80;;;;;;4938360;29;19906;-81
2021/11/23 05:19:23;;;;;;;;;;;204.80;2252.80;;;;;;4955959;29;20106;-78
2021/11/23 05:21:49;;;;;;;32.42;15.70;;;204.80;2252.80;;;;;;4955827;29;20334;-78
2021/11/23 05:24:15;;;;;;;;;;;205.00;2252.80;;;;;;4967974;29;20031;-79
2021/11/23 05:26:41;;;;;;;29.40;12.95;;;204.80;2252.80;;;;;;4950164;29;19913;-79
2021/11/23 05:29:06;;;;;;;;;;;204.80;2252.80;;;;;;4942315;29;20476;-79
2021/11/23 05:31:33;;;;;;;33.10;13.93;;;204.90;2252.80;;;;;;4955544;29;19913;-80
2021/11/23 05:33:59;;;;;;;24.67;12.95;;;180.10;2252.80;;;;;;4955665;29;20027;-77
2021/11/23 05:36:25;;;;;;;25.98;13.45;;;180.10;2252.80;;;;;;4938321;29;20059;-77
2021/11/23 05:38:50;;;;;;;;;;;204.80;2252.80;;;;;;4938320;29;20061;-79
2021/11/23 05:41:16;;;;;;;28.80;12.93;;;180.10;2252.80;;;;;;4938132;29;19907;-77
2021/11/23 05:43:42;;;;;;;;;;;180.10;2252.80;;;;;;4938403;29;20031;-76
2021/11/23 05:46:08;;;;;;;26.20;12.48;;;180.00;2252.80;;;;;;4938054;29;20297;-76
2021/11/23 05:48:34;;;;;;;29.77;14.20;;;204.80;2252.80;;;;;;4938175;29;20122;-79
2021/11/23 05:51:03;;;;;;;;;;;179.90;2252.80;;;;;;4937829;29;20139;-77
2021/11/23 05:53:32;;;;;;;26.77;13.15;;;179.90;2252.80;;;;;;4954770;29;19926;-76
2021/11/23 05:55:58;;;;;;;29.48;13.77;;;179.80;2252.80;;;;;;4954963;29;20085;-79
2021/11/23 05:58:24;;;;;;;;;;;179.90;2252.80;;;;;;4955425;29;20541;-78
2021/11/23 06:00:49;;;;;;;28.67;14.13;;;179.90;2252.80;;;;;;4954736;28;19952;-78
2021/11/23 06:03:15;;;;;;;;;;;179.90;2252.80;;;;;;4954968;29;20027;-76
2021/11/23 06:05:41;;;;;;;26.30;13.18;;;179.90;2252.80;;;;;;4954649;29;19910;-78
2021/11/23 06:08:07;;;;;;;26.35;13.68;;;179.90;2252.80;;;;;;4939332;28;20064;-78
2021/11/23 06:10:32;;;;;;;;;;;179.80;2252.80;;;;;;4974147;28;20079;-75
2021/11/23 06:12:59;;;;;;;24.70;12.10;;;179.80;2252.80;;;;;;4974209;28;19996;-79
2021/11/23 06:15:28;;;;;;;27.92;14.93;;;179.60;2252.80;;;;;;4956205;28;20038;-77
2021/11/23 06:18:02;;;;;;;29.73;14.77;;;179.70;2252.80;;;;;;4956716;28;20417;-77
2021/11/23 06:20:31;;;;;;;27.30;13.68;;;179.80;2252.80;;;;;;4953555;28;20035;-79
2021/11/23 06:22:59;;;;;;;22.52;11.27;;;179.80;2252.80;;;;;;4937604;29;20031;-79
2021/11/23 06:25:25;;;;;;;22.38;11.40;;;179.70;2252.80;;;;;;4937468;29;20051;-80
2021/11/23 06:27:52;;;;;;;21.67;11.38;;;179.80;2252.80;;;;;;4954926;29;20027;-79
2021/11/23 06:30:18;;;;;;;24.33;10.57;;;179.90;2252.80;;;;;;4954848;29;20063;-77
2021/11/23 06:32:44;;;;;;;;;;;179.80;2252.80;;;;;;4955211;29;20033;-76
2021/11/23 06:35:10;;;;;;;19.67;10.10;;;179.90;2252.80;;;;;;4937483;29;20361;-79
2021/11/23 06:37:35;;;;;;;;;;;179.90;2252.80;;;;;;4955691;28;20020;-78
2021/11/23 06:40:03;;;;;;;21.13;9.85;;;179.80;2252.80;;;;;;4958405;29;19949;-79
2021/11/23 06:42:29;;;;;;;18.70;9.85;;;179.80;2252.80;;;;;;4940831;29;20455;-79
2021/11/23 06:44:54;;;;;;;;;;;179.90;2252.80;;;;;;4941414;29;20125;-77
2021/11/23 06:47:20;;;;;;;21.75;10.88;;;179.90;2252.80;;;;;;4957985;29;19906;-77
2021/11/23 06:49:45;;;;;;;;;;;179.90;2252.80;;;;;;4958443;29;20105;-78
2021/11/23 06:52:12;;;;;;;20.08;10.27;;;179.90;2252.80;;;;;;4958017;29;20281;-80
2021/11/23 06:54:38;;;;;;;;;;;179.90;2252.80;;;;;;4958480;29;20098;-82
2021/11/23 06:57:04;;;;;;;25.17;10.38;;;179.80;2252.80;;;;;;4958174;29;19910;-77
2021/11/23 06:59:30;;;;;;;17.45;9.00;;;179.90;2252.80;;;;;;4958281;29;20045;-81
2021/11/23 07:01:56;;;;;;;;;;;179.90;2252.80;;;;;;4958140;28;20458;-80
2021/11/23 07:04:21;;;;;;;20.05;8.85;;;180.00;2252.80;;;;;;4958019;29;19978;-77
2021/11/23 07:06:48;;;;;;;;;;;180.10;2252.80;;;;;;4941516;29;20033;-81
2021/11/23 07:09:15;;;;;;;18.92;9.88;;;204.80;2252.80;;;;;;4957777;29;20073;-80
2021/11/23 07:11:41;;;;;;;19.50;11.07;;;204.80;2252.80;;;;;;4940691;29;20399;-78
2021/11/23 07:14:17;;;;;;;21.80;11.13;;;204.80;2252.80;;;;;;4940609;29;20094;-78
2021/11/23 07:16:43;;;;;;;27.42;12.40;;;180.10;2252.80;;;;;;4940888;29;20110;-84
2021/11/23 07:19:08;;;;;;;;;;;180.00;2252.80;;;;;;4941381;29;20122;-84
2021/11/23 07:21:34;;;;;;;17.33;9.77;;;180.00;2252.80;;;;;;4940502;29;19960;-79
2021/11/23 07:24:00;;;;;;;23.00;11.27;;;180.00;2252.80;;;;;;4957393;29;20066;-80
2021/11/23 07:26:27;;;;;;;;;;;180.00;2252.80;;;;;;4941035;29;20098;-79
2021/11/23 07:28:53;;;;;;;20.87;10.73;;;180.10;2252.80;;;;;;4957816;29;19913;-81
2021/11/23 07:31:18;;;;;;;;;;;180.10;2252.80;;;;;;4957964;29;20261;-81
2021/11/23 07:33:44;;;;;;;18.27;10.00;;;180.00;2252.80;;;;;;4957979;29;20401;-79
2021/11/23 07:36:10;;;;;;;;;;;180.00;2252.80;;;;;;4958240;29;20023;-80
2021/11/23 07:38:36;;;;;;;20.67;10.55;;;180.00;2252.80;;;;;;4940262;29;19941;-78
2021/11/23 07:41:02;;;;;;;18.63;8.57;;;179.90;2252.80;;;;;;4939560;29;20034;-82
2021/11/23 07:43:27;;;;;;;;;;;179.90;2252.80;;;;;;4940054;29;20561;-75
2021/11/23 07:45:53;;;;;;;19.08;9.73;;;180.00;2252.80;;;;;;4957515;29;19914;-79
2021/11/23 07:48:19;;;;;;;;;;;180.00;2252.80;;;;;;4957893;29;20472;-82
2021/11/23 07:50:44;;;;;;;17.45;9.05;;;180.00;2252.80;;;;;;4939350;29;19913;-79
2021/11/23 07:53:10;;;;;;;;;;;180.10;2252.80;;;;;;4946740;28;20118;-81
2021/11/23 07:55:36;;;;;;;17.17;8.50;;;180.10;2252.80;;;;;;4965323;28;19906;-78
2021/11/23 07:58:16;;;;;;;15.77;8.35;;;180.10;2252.80;;;;;;4962593;28;20106;-78
2021/11/23 08:00:42;;;;;;;18.05;9.27;;;204.80;2252.80;;;;;;4959783;28;20125;-78
2021/11/23 08:03:09;;;;;;;;;;;204.80;2252.80;;;;;;4944885;28;20027;-81
2021/11/23 08:05:36;;;;;;;26.48;10.52;;;204.80;2252.80;;;;;;4941418;28;19919;-79
2021/11/23 08:08:04;;;;;;;25.77;11.63;;;204.80;2252.80;;;;;;4959175;28;20051;-78
2021/11/23 08:10:30;;;;;;;24.95;10.90;;;204.80;2252.80;;;;;;4943172;28;20054;-76
2021/11/23 08:12:55;;;;;;;;;;;204.80;2252.80;;;;;;4958914;28;20027;-76
2021/11/23 08:15:30;;;;;;;35.95;14.60;;;204.90;2252.80;;;;;;4960955;28;19917;-75
2021/11/23 08:17:56;;;;;;;35.88;15.15;;;204.90;2252.80;;;;;;4939712;28;20040;-79
2021/11/23 08:20:21;;;;;;;;;;;205.00;2252.80;;;;;;4935251;29;20093;-78
2021/11/23 08:22:48;;;;;;;21.27;10.95;;;205.10;2252.80;;;;;;4935495;29;19991;-78
2021/11/23 08:25:15;;;;;;;20.38;9.82;;;205.10;2252.80;;;;;;4954049;29;20031;-76
2021/11/23 08:27:41;;;;;;;19.70;10.45;;;205.70;2252.80;;;;;;4959570;28;20110;-80
2021/11/23 08:30:09;;;;;;;23.58;8.48;;;205.30;2252.80;;;;;;4962186;28;20062;-77
2021/11/23 08:32:35;;;;;;;22.77;12.23;;;205.40;2252.80;;;;;;4941730;29;20035;-76
2021/11/23 08:35:01;;;;;;;30.15;15.02;;;205.60;2252.80;;;;;;4936051;29;20364;-77
2021/11/23 08:37:29;;;;;;;19.08;9.55;;;205.70;2252.80;;;;;;4935631;28;20039;-77
2021/11/23 08:39:55;;;;;;;15.07;9.20;;;230.50;2252.80;;;;;;4945406;28;20034;-77
2021/11/23 08:42:21;;;;;;;13.07;7.43;;;230.50;2252.80;;;;;;4933194;29;20024;-82
2021/11/23 08:44:49;;;;;;;13.20;8.35;;;230.70;2252.80;;;;;;4939417;29;20486;-78
2021/11/23 08:47:15;;;;;;;19.33;8.02;;;230.80;2252.80;;;;;;4960960;28;20023;-84
2021/11/23 08:49:42;;;;;;;15.27;7.63;;;230.80;2252.80;;;;;;4964207;28;20094;-75
2021/11/23 08:52:08;;;;;;;16.50;7.93;;;230.80;2252.80;;;;;;4955434;28;20031;-77
2021/11/23 08:54:33;;;;;;;;;;;230.80;2252.80;;;;;;4962216;28;20037;-76
2021/11/23 08:59:33;;;;;;;12.93;7.55;;;230.90;2252.80;;;;;;4955765;28;20034;-75
2021/11/23 09:02:00;;;;;;;18.80;9.60;;;231.10;2252.80;;;;;;4938040;29;20137;-81
2021/11/23 09:04:26;;;;;;;15.68;8.38;;;231.10;2252.80;;;;;;4938666;29;20043;-79
2021/11/23 09:06:52;;;;;;;12.82;7.85;;;231.20;2252.80;;;;;;4938465;29;20467;-77
2021/11/23 09:09:23;;;;;;;18.65;9.40;;;231.20;2252.80;;;;;;4972727;28;20026;-77
2021/11/23 09:11:49;;;;;;;18.80;11.15;;;231.30;2252.80;;;;;;4957549;28;20054;-79
2021/11/23 09:14:15;;;;;;;21.13;10.95;;;231.20;2252.80;;;;;;4973647;28;20031;-77
2021/11/23 09:16:41;;;;;;;;;;;256.00;2252.80;;;;;;4975368;28;20029;-80
2021/11/23 09:19:07;;;;;;;19.75;8.68;;;256.10;2252.80;;;;;;4957693;28;19907;-79
2021/11/23 09:21:33;;;;;;;16.13;10.02;;;256.40;2252.80;;;;;;4963807;28;20031;-79
2021/11/23 09:23:59;;;;;;;;;;;256.50;2252.80;;;;;;4938960;29;20043;-79
2021/11/23 09:26:25;;;;;;;16.90;9.73;;;256.30;2252.80;;;;;;4937864;29;19907;-78
2021/11/23 09:28:53;;;;;;;19.70;10.25;;;256.70;2252.80;;;;;;4955446;29;20039;-78
2021/11/23 09:31:19;;;;;;;15.02;8.25;;;256.70;2252.80;;;;;;4938072;29;20502;-78
2021/11/23 09:33:45;;;;;;;;;;;256.90;2252.80;;;;;;4955655;29;20446;-79
2021/11/23 09:36:11;;;;;;;15.52;8.10;;;281.70;2278.40;;;;;;4955339;29;19997;-77
2021/11/23 09:38:38;;;;;;;15.43;9.63;;;281.80;2278.40;;;;;;4955257;29;20020;-80
2021/11/23 09:41:05;;;;;;;17.38;9.60;;;281.90;2278.40;;;;;;4937910;29;20030;-78
2021/11/23 09:43:31;;;;;;;14.48;8.65;;;281.90;2278.40;;;;;;4938231;29;20480;-78
2021/11/23 09:45:57;;;;;;;13.10;8.75;;;281.70;2278.40;;;;;;4938267;29;20046;-84
2021/11/23 09:48:23;;;;;;;15.60;8.90;;;282.00;2278.40;;;;;;4942009;28;20023;-84
2021/11/23 09:50:51;;;;;;;13.25;7.57;;;307.20;2304.00;;;;;;4949179;28;20554;-77
2021/11/23 09:53:19;;;;;;;13.57;8.18;;;282.50;2278.40;;;;;;4946498;28;20032;-83
2021/11/23 09:55:46;;;;;;;16.83;9.10;;;282.50;2278.40;;;;;;4943252;29;20027;-84
2021/11/23 09:58:13;;;;;;;16.50;7.55;;;307.20;2304.00;;;;;;4938424;29;20114;-82
2021/11/23 10:00:45;;;;;;;13.70;8.55;;;307.30;2304.00;;;;;;4955716;29;20031;-81
2021/11/23 10:03:29;;;;;;;13.68;8.60;;;307.60;2304.00;;;;;;4938149;29;20475;-77
2021/11/23 10:06:06;;;;;;;16.67;8.48;;;307.70;2304.00;;;;;;4938106;29;20098;-81
2021/11/23 10:08:32;;;;;;;10.85;6.07;;;307.80;2304.00;;;;;;4955744;29;20103;-77
2021/11/23 10:10:57;;;;;;;17.30;7.78;;;307.60;2304.00;;;;;;4955186;29;20122;-81
2021/11/23 10:13:41;;;;;;;16.80;8.85;;;308.00;2304.00;;;;;;4957426;28;20549;-83
2021/11/23 10:16:08;;;;;;;16.92;9.38;;;332.80;2329.60;;;;;;4954318;29;20074;-76
2021/11/23 10:18:34;;;;;;;17.92;10.07;;;333.00;2329.60;;;;;;4958026;29;20122;-78
2021/11/23 10:21:02;;;;;;;17.70;11.10;;;332.90;2329.60;;;;;;4954250;28;20360;-77
2021/11/23 10:23:47;;;;;;;14.68;9.38;;;308.10;2304.00;;;;;;4941498;29;20035;-78
2021/11/23 10:26:28;;;;;;;15.70;9.20;;;332.80;2329.60;;;;;;4958353;29;20031;-77
2021/11/23 10:28:58;;;;;;;13.93;9.02;;;332.90;2329.60;;;;;;4941229;29;20034;-78
2021/11/23 10:31:48;;;;;;;18.10;10.27;;;332.80;2329.60;;;;;;4941531;29;20375;-81
2021/11/23 10:34:16;;;;;;;15.63;8.88;;;308.10;2304.00;;;;;;4942320;29;20038;-80
2021/11/23 10:36:45;;;;;;;14.07;8.75;;;332.90;2329.60;;;;;;4941556;29;20028;-81
2021/11/23 10:39:34;;;;;;;13.50;9.05;;;308.10;2304.00;;;;;;4941262;29;20051;-86
2021/11/23 10:42:01;;;;;;;12.63;8.65;;;333.10;2329.60;;;;;;4958706;29;20023;-81
2021/11/23 10:44:35;;;;;;;16.55;9.73;;;332.80;2329.60;;;;;;4941612;29;20031;-82
2021/11/23 10:47:06;;;;;;;15.65;9.13;;;332.90;2329.60;;;;;;4941218;29;20086;-85
2021/11/23 10:49:34;;;;;;;15.63;8.25;;;333.20;2329.60;;;;;;4953572;28;20027;-83
2021/11/23 10:52:02;;;;;;;15.35;9.25;;;333.40;2329.60;;;;;;4961081;28;20031;-78
2021/11/23 10:54:33;;;;;;;13.20;8.82;;;333.20;2329.60;;;;;;4964803;28;20042;-79
2021/11/23 10:57:03;;;;;;;13.63;8.45;;;333.00;2329.60;;;;;;4977525;28;20047;-80
2021/11/23 10:59:29;;;;;;;14.52;8.65;;;333.50;2329.60;;;;;;4964372;28;20035;-83
2021/11/23 11:01:56;;;;;;;16.52;9.38;;;333.50;2329.60;;;;;;4958481;29;20029;-81
2021/11/23 11:04:22;;;;;;;16.13;8.93;;;333.70;2329.60;;;;;;4942769;29;20057;-79
2021/11/23 11:06:49;;;;;;;13.88;9.50;;;333.60;2329.60;;;;;;4940843;29;20031;-83
2021/11/23 11:09:20;;;;;;;14.30;8.88;;;358.40;2329.60;;;;;;4956957;29;20031;-77
2021/11/23 11:11:46;;;;;;;17.20;9.10;;;358.50;2329.60;;;;;;4939897;29;20079;-78
2021/11/23 11:14:14;;;;;;;15.75;8.63;;;333.70;2329.60;;;;;;4940139;29;20043;-81
2021/11/23 11:16:40;;;;;;;12.98;7.97;;;333.60;2329.60;;;;;;4940627;29;20035;-77
2021/11/23 11:19:11;;;;;;;14.40;7.72;;;333.50;2329.60;;;;;;4957671;29;20106;-75
2021/11/23 11:21:45;;;;;;;15.23;8.60;;;333.50;2329.60;;;;;;4942643;28;20063;-80
2021/11/23 11:24:44;;;;;;;14.55;8.07;;;333.70;2329.60;;;;;;4949838;28;20130;-75
2021/11/23 11:27:32;;;;;;;15.10;9.07;;;358.40;2329.60;;;;;;4966040;28;20025;-78
2021/11/23 11:30:30;;;;;;;16.92;10.50;;;333.70;2329.60;;;;;;4966688;28;20062;-76
2021/11/23 11:33:14;;;;;;;13.38;8.27;;;333.60;2329.60;;;;;;4965648;28;20023;-76
2021/11/23 11:35:44;;;;;;;15.40;9.20;;;333.40;2329.60;;;;;;4959905;28;20086;-76
2021/11/23 11:38:31;;;;;;;20.40;10.85;;;333.40;2329.60;;;;;;4957151;29;20078;-76
2021/11/23 11:41:02;;;;;;;16.20;9.25;;;333.70;2329.60;;;;;;4960193;28;20464;-77
2021/11/23 11:43:34;;;;;;;14.80;8.52;;;333.60;2304.00;;;;;;4967410;28;20089;-76
2021/11/23 11:46:01;;;;;;;13.52;9.02;;;333.60;2304.00;;;;;;4956884;29;20102;-78
2021/11/23 11:48:33;;;;;;;17.55;10.02;;;333.30;2329.60;;;;;;4956723;29;20102;-77
2021/11/23 11:51:06;;;;;;;16.10;9.15;;;333.30;2329.60;;;;;;4947006;28;20054;-77
2021/11/23 11:53:43;;;;;;;16.48;10.27;;;333.20;2329.60;;;;;;4962808;28;20526;-76
2021/11/23 11:56:10;;;;;;;15.43;9.15;;;333.30;2329.60;;;;;;4967142;28;20026;-76
2021/11/23 11:58:57;;;;;;;14.32;8.57;;;333.60;2329.60;;;;;;4956781;29;20034;-76
2021/11/23 12:01:33;;;;;;;12.07;6.97;;;333.20;2329.60;;;;;;4955463;28;20038;-78
2021/11/23 12:04:02;;;;;;;;;;;333.20;2329.60;;;;;;4956418;29;20032;-77
2021/11/23 12:07:11;;;;;;;15.75;9.32;;;333.30;2329.60;;;;;;4938813;29;20033;-77
2021/11/23 12:09:41;;;;;;;17.10;9.02;;;332.90;2329.60;;;;;;4943076;28;20039;-76
2021/11/23 12:12:10;;;;;;;14.57;8.82;;;333.20;2329.60;;;;;;4943121;28;20046;-77
2021/11/23 12:15:07;;;;;;;23.60;12.20;;;332.90;2329.60;;;;;;4965590;28;20178;-78
2021/11/23 12:18:02;;;;;;;15.93;8.25;;;332.90;2329.60;;;;;;4947202;28;20028;-78
2021/11/23 12:21:19;;;;;;;14.65;7.90;;;333.00;2329.60;;;;;;4931332;28;20035;-76
2021/11/23 12:23:52;;;;;;;19.27;9.57;;;333.10;2329.60;;;;;;4868240;29;20053;-76
2021/11/23 12:26:20;;;;;;;13.50;8.68;;;308.10;2304.00;;;;;;4864599;29;20098;-77
2021/11/23 12:28:57;;;;;;;16.23;9.52;;;308.10;2304.00;;;;;;4848409;29;20036;-76
2021/11/23 12:31:27;;;;;;;27.05;13.57;;;308.00;2304.00;;;;;;4853046;29;20036;-77